DW4782 Asprovalta GR current weather conditions

sailwx.info

Wind from 146

Air temperature 28.3° C
Dewpoint 21.1° C

Last reported at 2015-Aug-03 05:50 UTC.
Time now 2015-Aug-03 06:42 UTC

Location: N 40°43' E 023°43'.
View on Google Maps.

See reports from other nearby stations

  
Tides and Currents Weather Stations Pressure Air Temp Water Temp Dewpoint Dewpoint Depression Visibility Wind Speed Wind Dir Waves Ship Positions
date/time (UTC)wind fromknots sea level pressurealtimeterstation pressurevisibilityair tempwater tempwave heightnotes
2015-Aug-03 05:50 146 28.3
2015-Aug-03 05:40 076 28.3
2015-Aug-03 05:30 27.8
2015-Aug-03 05:20 27.2
2015-Aug-03 05:00 261 0 gusting 0 25.6
2015-Aug-03 04:50 296 25.0
2015-Aug-03 04:40 281 24.4
2015-Aug-03 04:30 24.4
2015-Aug-03 04:20 24.4
2015-Aug-03 04:10 23.9
2015-Aug-03 04:00 270 23.9
2015-Aug-03 03:50 23.9
2015-Aug-03 03:40 23.9
2015-Aug-03 03:30 270 23.9
2015-Aug-03 03:20 270 23.9
2015-Aug-03 03:10 270 23.9
2015-Aug-03 03:00 270 23.9
2015-Aug-03 02:50 279 0 gusting 2 23.9
2015-Aug-03 02:40 258 24.4
2015-Aug-03 02:20 256 24.4
2015-Aug-03 02:10 263 0 gusting 2 24.4
2015-Aug-03 02:00 268 0 gusting 1 24.4
2015-Aug-03 01:50 278 0 gusting 2 24.4
2015-Aug-03 01:40 292 24.4
2015-Aug-03 01:30 282 0 gusting 2 24.4
2015-Aug-03 01:20 283 23.9
2015-Aug-03 01:10 283 23.9
2015-Aug-03 01:00 23.9
2015-Aug-03 00:50 339 23.9
2015-Aug-03 00:40 23.9
2015-Aug-03 00:30 313 23.9
2015-Aug-03 00:20 23.9
2015-Aug-03 00:10 24.4
2015-Aug-03 00:00 284 24.4
2015-Aug-02 23:50 284 24.4
2015-Aug-02 23:40 24.4
2015-Aug-02 23:30 284 24.4
2015-Aug-02 23:20 284 24.4
2015-Aug-02 23:10 284 25.0
2015-Aug-02 23:00 286 25.0
2015-Aug-02 22:50 25.0
2015-Aug-02 22:40 25.6
2015-Aug-02 22:30 285 25.6
2015-Aug-02 22:20 25.6
2015-Aug-02 22:10 285 26.1
2015-Aug-02 22:00 26.1
2015-Aug-02 21:50 26.7
2015-Aug-02 21:40 26.7
2015-Aug-02 21:30 26.7
2015-Aug-02 21:20 26.7
2015-Aug-02 21:00 285 27.2
2015-Aug-02 20:40 286 27.8
2015-Aug-02 20:30 27.8
2015-Aug-02 20:20 27.8
2015-Aug-02 20:10 286 27.8
2015-Aug-02 20:00 285 27.8
2015-Aug-02 19:50 285 27.8
2015-Aug-02 19:40 285 27.8
2015-Aug-02 19:30 270 27.8
2015-Aug-02 19:20 27.8
2015-Aug-02 19:10 28.3
2015-Aug-02 19:00 28.3
2015-Aug-02 18:50 270 28.3
2015-Aug-02 18:40 28.3
2015-Aug-02 18:30 270 28.3
2015-Aug-02 18:20 285 28.3
2015-Aug-02 18:10 286 28.3
2015-Aug-02 18:00 287 1 gusting 1 28.9
2015-Aug-02 17:50 309 28.9
2015-Aug-02 17:40 297 28.9
2015-Aug-02 17:30 29.4
2015-Aug-02 17:20 308 29.4
2015-Aug-02 17:10 29.4
2015-Aug-02 17:00 29.4
2015-Aug-02 16:50 305 29.4
2015-Aug-02 16:40 039 0 gusting 0 29.4
2015-Aug-02 16:30 322 0 gusting 3 29.4
2015-Aug-02 16:20 340 30.0
2015-Aug-02 16:10 046 0 gusting 1 30.0
2015-Aug-02 16:00 055 0 gusting 1 30.0
2015-Aug-02 15:50 088 2 gusting 4 30.6
2015-Aug-02 15:40 060 1 gusting 3 31.1
2015-Aug-02 15:30 087 0 gusting 3 31.1
2015-Aug-02 15:20 109 0 gusting 1 31.7
2015-Aug-02 15:10 052 0 gusting 1 31.7
2015-Aug-02 15:00 070 0 gusting 4 31.7
2015-Aug-02 14:50 116 0 gusting 4 31.7
2015-Aug-02 14:40 100 0 gusting 1 31.7
2015-Aug-02 14:30 126 0 gusting 1 32.2
2015-Aug-02 14:20 095 0 gusting 1 32.2
2015-Aug-02 14:10 087 1 gusting 4 31.7
2015-Aug-02 14:00 086 1 gusting 5 31.7
2015-Aug-02 13:50 121 1 gusting 3 31.7
2015-Aug-02 13:40 120 1 gusting 4 31.1
2015-Aug-02 13:30 087 2 gusting 4 31.1
2015-Aug-02 13:20 102 2 gusting 6 31.7
2015-Aug-02 13:10 113 2 gusting 6 31.7
2015-Aug-02 12:40 127 3 gusting 7 31.1
2015-Aug-02 12:30 101 3 gusting 6 31.7
2015-Aug-02 12:20 136 2 gusting 6 31.7
2015-Aug-02 12:10 110 2 gusting 5 31.7
2015-Aug-02 12:00 097 2 gusting 6 31.7
2015-Aug-02 11:50 104 2 gusting 6 31.7
2015-Aug-02 11:40 107 3 gusting 6 31.7
2015-Aug-02 11:30 123 2 gusting 7 31.7
2015-Aug-02 11:20 099 2 gusting 6 31.7
2015-Aug-02 11:10 103 2 gusting 6 31.7
2015-Aug-02 10:40 107 3 gusting 6 31.1
2015-Aug-02 10:30 092 3 gusting 6 31.1
2015-Aug-02 10:20 108 2 gusting 6 31.1
2015-Aug-02 10:10 104 2 gusting 6 31.1
2015-Aug-02 10:00 111 2 gusting 6 31.1
2015-Aug-02 09:50 123 2 gusting 5 31.1
2015-Aug-02 09:40 097 2 gusting 6 31.1
2015-Aug-02 09:30 133 1 gusting 4 31.1
2015-Aug-02 09:20 124 2 gusting 4 30.6
2015-Aug-02 09:10 113 2 gusting 6 30.6
2015-Aug-02 09:00 128 2 gusting 6 30.0
2015-Aug-02 08:50 113 2 gusting 4 30.0
2015-Aug-02 08:40 125 1 gusting 6 30.0
2015-Aug-02 08:30 117 1 gusting 4 30.0
2015-Aug-02 08:20 109 1 gusting 5 29.4
2015-Aug-02 08:10 143 1 gusting 3 29.4
2015-Aug-02 08:00 134 1 gusting 6 29.4
2015-Aug-02 07:50 114 0 gusting 3 29.4
2015-Aug-02 07:40 124 1 gusting 4 28.9
2015-Aug-02 07:30 125 1 gusting 3 29.4
2015-Aug-02 07:20 123 2 gusting 6 29.4
2015-Aug-02 07:10 133 1 gusting 3 29.4
2015-Aug-02 07:00 115 2 gusting 6 28.9
2015-Aug-02 06:50 107 0 gusting 1 28.3
2015-Aug-02 06:40 040 0 gusting 3 27.8
2015-Aug-02 06:30 092 0 gusting 2 27.8
2015-Aug-02 06:20 141 0 gusting 2 27.8
2015-Aug-02 06:00 056 0 gusting 2 27.2
2015-Aug-02 05:50 086 0 gusting 2 27.2
2015-Aug-02 05:40 065 0 gusting 2 26.7
2015-Aug-02 05:30 118 0 gusting 1 26.7
2015-Aug-02 05:20 071 0 gusting 2 26.7
2015-Aug-02 05:10 095 0 gusting 1 26.7
2015-Aug-02 05:00 093 0 gusting 2 26.7
2015-Aug-02 04:50 096 0 gusting 2 26.7
2015-Aug-02 04:40 050 0 gusting 3 26.7
2015-Aug-02 04:30 097 0 gusting 4 26.1
2015-Aug-02 04:20 045 0 gusting 3 26.1
2015-Aug-02 04:10 050 0 gusting 2 26.1
2015-Aug-02 04:00 046 0 gusting 3 26.1
2015-Aug-02 03:50 049 0 gusting 1 26.1
2015-Aug-02 03:40 082 0 gusting 2 26.1
2015-Aug-02 03:30 056 0 gusting 3 26.7
2015-Aug-02 03:20 072 1 gusting 3 26.7
2015-Aug-02 03:10 043 0 gusting 5 26.7
2015-Aug-02 03:00 085 0 gusting 2 26.7
2015-Aug-02 02:50 090 1 gusting 5 26.7
2015-Aug-02 02:40 102 0 gusting 4 26.7
2015-Aug-02 02:30 123 0 gusting 2 26.7
2015-Aug-02 02:20 110 1 gusting 4 26.7
2015-Aug-02 02:10 122 2 gusting 6 26.7
2015-Aug-02 02:00 118 1 gusting 3 26.7
2015-Aug-02 01:50 140 1 gusting 5 26.7
2015-Aug-02 01:40 127 1 gusting 4 26.7
2015-Aug-02 01:20 141 0 gusting 2 27.2
2015-Aug-02 01:10 131 1 gusting 3 27.2
2015-Aug-02 01:00 135 1 gusting 4 27.2
2015-Aug-02 00:40 133 2 gusting 6 27.2
2015-Aug-02 00:30 129 1 gusting 4 26.7
2015-Aug-02 00:20 125 0 gusting 2 26.7
2015-Aug-02 00:10 26.1
2015-Aug-02 00:00 26.1
2015-Aug-01 23:50 25.6
2015-Aug-01 23:20 279 25.0
2015-Aug-01 23:10 25.0
2015-Aug-01 23:00 25.0
2015-Aug-01 22:40 280 25.0
2015-Aug-01 22:30 25.0
2015-Aug-01 22:20 25.6
2015-Aug-01 22:10 280 25.6
2015-Aug-01 22:00 25.6
2015-Aug-01 21:50 25.6
2015-Aug-01 21:40 279 25.6
2015-Aug-01 21:30 279 25.6
2015-Aug-01 21:20 276 26.1
2015-Aug-01 21:10 291 26.1
2015-Aug-01 21:00 292 0 gusting 2 26.1
2015-Aug-01 20:50 26.1
2015-Aug-01 20:40 26.1
2015-Aug-01 20:30 26.7
2015-Aug-01 20:20 26.7
2015-Aug-01 20:10 26.7
2015-Aug-01 20:00 26.7
2015-Aug-01 19:50 290 27.2
2015-Aug-01 19:40 289 27.2
2015-Aug-01 19:30 289 27.8
2015-Aug-01 19:20 290 27.2
2015-Aug-01 19:10 289 27.2
2015-Aug-01 19:00 276 0 gusting 3 27.2
2015-Aug-01 18:50 260 1 gusting 4 27.2
2015-Aug-01 18:40 262 1 gusting 3 27.8
2015-Aug-01 18:30 281 1 gusting 2 27.8
2015-Aug-01 18:20 270 1 gusting 2 27.8
2015-Aug-01 18:10 273 0 gusting 2 27.8
2015-Aug-01 18:00 284 1 gusting 4 27.8
2015-Aug-01 17:50 284 0 gusting 3 27.8
2015-Aug-01 17:40 304 27.8
2015-Aug-01 17:30 286 0 gusting 1 28.3
2015-Aug-01 17:20 260 0 gusting 3 28.3
2015-Aug-01 17:10 079 28.9
2015-Aug-01 17:00 29.4
2015-Aug-01 16:50 29.4
2015-Aug-01 16:40 29.4
2015-Aug-01 16:30 069 30.0
2015-Aug-01 16:20 30.0
2015-Aug-01 16:10 065 30.0
2015-Aug-01 16:00 101 0 gusting 1 30.0
2015-Aug-01 15:50 051 0 gusting 2 30.6
2015-Aug-01 15:40 037 0 gusting 2 30.6
2015-Aug-01 15:30 037 0 gusting 5 30.6
2015-Aug-01 15:20 124 0 gusting 2 30.6
2015-Aug-01 15:10 083 0 gusting 1 30.6
2015-Aug-01 15:00 020 1 gusting 4 30.6
2015-Aug-01 14:50 071 2 gusting 3 30.6
2015-Aug-01 14:40 047 1 gusting 3 31.1
2015-Aug-01 14:30 050 2 gusting 5 31.7
2015-Aug-01 14:20 060 2 gusting 6 31.1
2015-Aug-01 14:10 085 2 gusting 6 31.1
2015-Aug-01 14:00 071 1 gusting 6 32.2
2015-Aug-01 13:50 101 1 gusting 3 31.7
2015-Aug-01 13:40 088 2 gusting 6 31.1
2015-Aug-01 13:30 089 3 gusting 6 31.7
2015-Aug-01 13:20 094 3 gusting 6 31.7
2015-Aug-01 13:10 062 2 gusting 4 31.7
2015-Aug-01 13:00 085 2 gusting 6 32.2
2015-Aug-01 12:50 113 2 gusting 5 31.7
2015-Aug-01 12:40 108 2 gusting 6 32.2
2015-Aug-01 12:30 085 2 gusting 6 31.7
2015-Aug-01 12:20 096 3 gusting 6 31.7
2015-Aug-01 12:10 112 3 gusting 6 31.7
2015-Aug-01 12:00 091 3 gusting 5 31.7
2015-Aug-01 11:50 122 2 gusting 4 31.7
2015-Aug-01 11:40 147 2 gusting 6 31.7
2015-Aug-01 11:30 135 3 gusting 6 31.1
2015-Aug-01 11:20 134 3 gusting 5 31.7
2015-Aug-01 11:10 133 4 gusting 7 31.1
2015-Aug-01 11:00 100 3 gusting 8 31.7
2015-Aug-01 10:50 128 2 gusting 7 31.7
2015-Aug-01 10:30 115 1 gusting 3 31.1
2015-Aug-01 10:20 120 1 gusting 4 31.1
2015-Aug-01 10:10 069 0 gusting 2 31.1
2015-Aug-01 10:00 086 1 gusting 5 31.7
2015-Aug-01 09:50 085 0 gusting 4 31.7
2015-Aug-01 09:40 087 0 gusting 4 31.7
2015-Aug-01 09:30 100 1 gusting 5 31.1
2015-Aug-01 09:20 131 1 gusting 3 31.7
2015-Aug-01 09:10 073 1 gusting 3 31.1
2015-Aug-01 09:00 100 1 gusting 5 32.2
2015-Aug-01 08:50 119 1 gusting 3 32.8
2015-Aug-01 08:40 074 0 gusting 4 32.8
2015-Aug-01 08:30 094 1 gusting 2 32.8
2015-Aug-01 08:20 131 0 gusting 2 32.8
2015-Aug-01 08:10 148 0 gusting 2 32.2
2015-Aug-01 08:00 120 0 gusting 2 32.2
2015-Aug-01 07:50 078 1 gusting 3 31.7
2015-Aug-01 07:40 132 0 gusting 3 31.7
2015-Aug-01 07:30 074 0 gusting 2 31.1
2015-Aug-01 07:20 147 0 gusting 1 30.6
2015-Aug-01 07:10 088 29.4
2015-Aug-01 07:00 28.3
2015-Aug-01 06:50 296 27.2
2015-Aug-01 06:40 26.7
2015-Aug-01 06:20 26.7
2015-Aug-01 06:10 26.1
2015-Aug-01 06:00 297 26.1